• Join FlightAware (Why Join?)
  • Login
  • US Flag 
09:42AM EDT


 

Airport Tracker/Info


-or-


 

Live Flight TrackerFlight Track Log ✈ CES2309 ✈ 24-Apr-2013 ✈ ZSPD / PVG - ZLXN / XNN

Flight Track Log - Related Links

Times and Time Zones

All times are in EDT time to prevent confusion due to time zone crossing. See the CES2309 flight status page for this flight to view local times or setup timezone preferences in your user account.

Time Position Orientation Groundspeed Altitude Reporting Facility
EDT Latitude Longitude Course Direction KTS MPH feet Rate Location/Type
08:12AM 30.9920 121.6610 296° West 9,100  Level FlightAware
08:14AM 31.0320 121.5620 295° West 11,300 1,860 Climbing FlightAware
08:15AM 31.0750 121.4570 296° West 13,700 2,040 Climbing FlightAware
08:17AM 31.1391 121.2880 294° West  Level Estimated
08:17AM 31.2470 121.2550 294° West 18,600  Level FlightAware
08:19AM 31.4190 121.1360 329° Northwest 19,700 540 Climbing FlightAware
08:20AM 31.4980 121.0900 334° Northwest 19,700  Level FlightAware
08:23AM 31.5821 120.8554 293° West  Level Estimated
08:24AM 31.6161 120.7602 293° West  Level Estimated
08:25AM 31.6500 120.6649 293° West  Level Estimated
08:26AM 31.6838 120.5696 293° West  Level Estimated
08:27AM 31.7176 120.4742 293° West  Level Estimated
08:28AM 31.7512 120.3787 293° West  Level Estimated
08:29AM 31.7849 120.2831 293° West  Level Estimated
08:30AM 31.8184 120.1875 292° West  Level Estimated
08:31AM 31.8519 120.0918 292° West  Level Estimated
08:32AM 31.8853 119.9960 292° West  Level Estimated
08:33AM 31.9186 119.9002 292° West  Level Estimated
08:34AM 31.9519 119.8043 292° West  Level Estimated
08:34AM 32.2390 119.8740 292° West 30,100  Level FlightAware
08:35AM 32.2260 119.7000 265° West 30,100  Level FlightAware
08:36AM 32.1970 119.5950 252° West 30,100  Level FlightAware
08:37AM 32.1600 119.4580 252° West 30,100  Level FlightAware
08:39AM 32.0940 119.2060 253° West 30,300 60 Climbing FlightAware
08:40AM 32.0740 119.1300 253° West 31,400 1,620 Climbing FlightAware
08:43AM 32.1641 118.8688 292° West  Level Estimated
08:44AM 32.1971 118.7725 292° West  Level Estimated
08:45AM 32.2301 118.6762 292° West  Level Estimated
08:46AM 32.2630 118.5798 292° West  Level Estimated
08:47AM 32.2958 118.4833 292° West  Level Estimated
08:48AM 32.3285 118.3867 292° West  Level Estimated
08:49AM 32.3611 118.2901 292° West  Level Estimated
08:50AM 32.3937 118.1934 292° West  Level Estimated
08:51AM 32.4263 118.0966 292° West  Level Estimated
08:52AM 32.4587 117.9998 292° West  Level Estimated
08:53AM 32.4911 117.9028 292° West  Level Estimated
08:54AM 32.5233 117.8059 292° West  Level Estimated
08:55AM 32.5556 117.7088 292° West  Level Estimated
08:56AM 32.5877 117.6117 291° West  Level Estimated
08:57AM 32.6198 117.5145 291° West  Level Estimated
08:58AM 32.6518 117.4173 291° West  Level Estimated
08:59AM 32.6837 117.3199 291° West  Level Estimated
09:00AM 32.7155 117.2225 291° West  Level Estimated
09:01AM 32.7473 117.1251 291° West  Level Estimated
09:02AM 32.7790 117.0276 291° West  Level Estimated
09:03AM 32.8106 116.9300 291° West  Level Estimated
09:04AM 32.8421 116.8323 291° West  Level Estimated
09:05AM 32.8736 116.7346 291° West  Level Estimated
09:06AM 32.9050 116.6367 291° West  Level Estimated
09:07AM 32.9363 116.5389 291° West  Level Estimated
09:08AM 32.9675 116.4409 291° West  Level Estimated
09:09AM 32.9987 116.3429 291° West  Level Estimated
09:10AM 33.0298 116.2448 291° West  Level Estimated
09:11AM 33.0608 116.1466 291° West  Level Estimated
09:12AM 33.0917 116.0484 291° West  Level Estimated
09:13AM 33.1225 115.9501 291° West  Level Estimated
09:14AM 33.1533 115.8518 291° West  Level Estimated
09:15AM 33.1840 115.7533 290° West  Level Estimated
09:16AM 33.2146 115.6548 290° West  Level Estimated
09:17AM 33.2452 115.5563 290° West  Level Estimated
09:18AM 33.2756 115.4576 290° West  Level Estimated
09:19AM 33.3060 115.3589 290° West  Level Estimated
09:20AM 33.3363 115.2601 290° West  Level Estimated
09:21AM 33.3666 115.1613 290° West  Level Estimated
09:22AM 33.3967 115.0624 290° West  Level Estimated
09:23AM 33.4268 114.9634 290° West  Level Estimated
09:24AM 33.4568 114.8643 290° West  Level Estimated
09:25AM 33.4867 114.7652 290° West  Level Estimated
09:26AM 33.5165 114.6660 290° West  Level Estimated
09:27AM 33.5463 114.5668 290° West  Level Estimated
09:28AM 33.5760 114.4675 290° West  Level Estimated
09:29AM 33.6056 114.3681 290° West  Level Estimated
09:30AM 33.6351 114.2686 290° West  Level Estimated
09:31AM 33.6645 114.1691 290° West  Level Estimated
09:32AM 33.6939 114.0695 290° West  Level Estimated
09:33AM 33.7232 113.9698 289° West  Level Estimated
09:34AM 33.7524 113.8701 289° West  Level Estimated
09:35AM 33.7815 113.7703 289° West  Level Estimated
09:36AM 33.8105 113.6704 289° West  Level Estimated
09:37AM 33.8395 113.5705 289° West  Level Estimated
09:38AM 33.8684 113.4705 289° West  Level Estimated
09:39AM 33.8972 113.3704 289° West  Level Estimated
09:40AM 33.9259 113.2703 289° West  Level Estimated
09:41AM 33.9545 113.1701 289° West  Level Estimated
09:42AM 33.9831 113.0698 289° West  Level Estimated
09:43AM 34.0115 112.9694 289° West  Level Estimated
09:44AM 34.0399 112.8690 289° West  Level Estimated
09:45AM 34.0682 112.7685 289° West  Level Estimated
09:46AM 34.0965 112.6680 289° West  Level Estimated
09:47AM 34.1246 112.5674 289° West  Level Estimated
09:48AM 34.1526 112.4667 289° West  Level Estimated
09:49AM 34.1806 112.3660 289° West  Level Estimated
09:50AM 34.2085 112.2652 289° West  Level Estimated
09:51AM 34.2363 112.1643 288° West  Level Estimated
09:52AM 34.2641 112.0633 288° West  Level Estimated
09:53AM 34.2917 111.9623 288° West  Level Estimated
09:54AM 34.3193 111.8613 288° West  Level Estimated
09:55AM 34.3468 111.7601 288° West  Level Estimated
09:56AM 34.3742 111.6589 288° West  Level Estimated
09:57AM 34.4015 111.5576 288° West  Level Estimated
09:58AM 34.4287 111.4563 288° West  Level Estimated
09:59AM 34.4559 111.3549 288° West  Level Estimated
10:00AM 34.4829 111.2534 288° West  Level Estimated
10:01AM 34.5099 111.1519 288° West  Level Estimated
10:02AM 34.5368 111.0503 288° West  Level Estimated
10:03AM 34.5636 110.9486 288° West  Level Estimated
10:04AM 34.5904 110.8469 288° West  Level Estimated
10:05AM 34.6170 110.7451 288° West  Level Estimated
10:06AM 34.6436 110.6432 288° West  Level Estimated
10:07AM 34.6700 110.5413 288° West  Level Estimated
10:08AM 34.6964 110.4393 287° West  Level Estimated
10:09AM 34.7227 110.3372 287° West  Level Estimated
10:10AM 34.7490 110.2351 287° West  Level Estimated
10:11AM 34.7751 110.1329 287° West  Level Estimated
10:12AM 34.8011 110.0306 287° West  Level Estimated
10:13AM 34.8271 109.9283 287° West  Level Estimated
10:14AM 34.8530 109.8259 287° West  Level Estimated
10:15AM 34.8788 109.7235 287° West  Level Estimated
10:16AM 34.9045 109.6210 287° West  Level Estimated
10:17AM 34.9301 109.5184 287° West  Level Estimated
10:18AM 34.9556 109.4157 287° West  Level Estimated
10:19AM 34.9811 109.3130 287° West  Level Estimated
10:20AM 35.0064 109.2103 287° West  Level Estimated
10:21AM 35.0317 109.1075 287° West  Level Estimated
10:22AM 35.0569 109.0045 287° West  Level Estimated
10:23AM 35.0820 108.9016 287° West  Level Estimated
10:24AM 35.1070 108.7986 287° West  Level Estimated
10:25AM 35.1319 108.6955 286° West  Level Estimated
10:26AM 35.1568 108.5923 286° West  Level Estimated
10:27AM 35.1815 108.4891 286° West  Level Estimated
10:28AM 35.2062 108.3858 286° West  Level Estimated
10:29AM 35.2308 108.2825 286° West  Level Estimated
10:30AM 35.2553 108.1791 286° West  Level Estimated
10:31AM 35.2797 108.0757 286° West  Level Estimated
10:32AM 35.3040 107.9721 286° West  Level Estimated
10:33AM 35.3282 107.8685 286° West  Level Estimated
10:34AM 35.3523 107.7649 286° West  Level Estimated
10:35AM 35.3764 107.6612 286° West  Level Estimated
10:36AM 35.4003 107.5574 286° West  Level Estimated
10:37AM 35.4242 107.4536 286° West  Level Estimated
10:38AM 35.4480 107.3497 286° West  Level Estimated
10:39AM 35.4717 107.2457 286° West  Level Estimated
10:40AM 35.4953 107.1417 286° West  Level Estimated
10:41AM 35.5188 107.0376 286° West  Level Estimated
10:42AM 35.5422 106.9335 285° West  Level Estimated
10:43AM 35.5655 106.8293 285° West  Level Estimated
10:44AM 35.5888 106.7250 285° West  Level Estimated
10:45AM 35.6119 106.6207 285° West  Level Estimated
10:46AM 35.6350 106.5163 285° West  Level Estimated
10:47AM 35.6580 106.4119 285° West  Level Estimated
10:48AM 35.6809 106.3074 285° West  Level Estimated
10:49AM 35.7036 106.2028 285° West  Level Estimated
10:50AM 35.7263 106.0982 285° West  Level Estimated
10:51AM 35.7490 105.9935 285° West  Level Estimated
10:52AM 35.7715 105.8888 285° West  Level Estimated
10:53AM 35.7939 105.7840 285° West  Level Estimated
10:54AM 35.8162 105.6791 285° West  Level Estimated
10:55AM 35.8385 105.5742 285° West  Level Estimated
10:56AM 35.8606 105.4692 285° West  Level Estimated
10:57AM 35.8827 105.3642 285° West  Level Estimated
10:58AM 35.9047 105.2591 285° West  Level Estimated
10:59AM 35.9266 105.1540 284° West  Level Estimated
11:00AM 35.9484 105.0488 284° West  Level Estimated
11:01AM 35.9701 104.9435 284° West  Level Estimated
11:02AM 35.9917 104.8382 284° West  Level Estimated
11:03AM 36.0132 104.7328 284° West  Level Estimated
11:04AM 36.0346 104.6273 284° West  Level Estimated
11:05AM 36.0560 104.5219 284° West  Level Estimated
11:06AM 36.0772 104.4163 284° West  Level Estimated
11:07AM 36.0983 104.3107 284° West  Level Estimated
11:08AM 36.1194 104.2050 284° West  Level Estimated
11:09AM 36.1404 104.0993 284° West  Level Estimated
11:10AM 36.1612 103.9935 284° West  Level Estimated
11:11AM 36.1820 103.8877 284° West  Level Estimated
11:12AM 36.2027 103.7818 284° West  Level Estimated
11:13AM 36.2233 103.6758 284° West  Level Estimated
11:14AM 36.2438 103.5698 284° West  Level Estimated
11:15AM 36.2642 103.4638 283° West  Level Estimated
11:16AM 36.2845 103.3577 283° West  Level Estimated
11:17AM 36.3047 103.2515 283° West  Level Estimated
11:18AM 36.3248 103.1453 283° West  Level Estimated
11:19AM 36.3448 103.0390 283° West  Level Estimated
11:20AM 36.3648 102.9327 283° West  Level Estimated
11:21AM 36.3846 102.8263 283° West  Level Estimated
11:22AM 36.4044 102.7198 283° West  Level Estimated
11:23AM 36.4240 102.6133 283° West  Level Estimated
11:24AM 36.4436 102.5068 283° West  Level Estimated
11:25AM 36.4630 102.4002 283° West  Level Estimated
11:26AM 36.4824 102.2935 283° West  Level Estimated
11:27AM 36.5017 102.1868 283° West  Level Estimated
11:28AM 36.5208 102.0801 283° West  Level Estimated
11:29AM 36.5275 102.0428 283° West  Level Estimated
11:30AM 36.5275 102.0428 270° West  Level Estimated
11:31AM 36.5275 102.0428 270° West  Level Estimated
11:32AM 36.5275 102.0428 270° West  Level Estimated
11:33AM 36.5275 102.0428 270° West  Level Estimated
11:34AM 36.5275 102.0428 270° West  Level Estimated
11:35AM 36.5275 102.0428 270° West  Level Estimated
11:36AM 36.5275 102.0428 270° West  Level Estimated
11:37AM 36.5275 102.0428 270° West  Level Estimated
11:38AM 36.5275 102.0428 270° West  Level Estimated